AirNav   Air Wisconsin Up To $57,000 Bonus
 
 1497 users online  

0MI8 Oakwood Southshore Medical Center Heliport
Trenton, Michigan, USA

GOING TO TRENTON?


FAA INFORMATION EFFECTIVE 19 MAY 2022

Location

FAA Identifier: 0MI8
Lat/Long: 42-06-57.5100N 083-12-52.8100W
42-06.958500N 083-12.880167W
42.1159750,-83.2146694
(estimated)
Elevation: 589 ft. / 180 m (estimated)
From city: 3 miles NE of TRENTON, MI
Time zone: UTC -4 (UTC -5 during Standard Time)
Zip code: 48183

Heliport Operations

Heliport use: Private use. Permission required prior to landing
Activation date: 10/2016
Control tower: no
ARTCC: CLEVELAND CENTER
FSS: LANSING FLIGHT SERVICE STATION
Attendance: 
Segmented circle: no

Heliport Communications

WX AWOS-3 at ONZ (2.6 nm SE): 119.675 (734-692-9686)
WX ASOS at DTW (8 nm NW): PHONE 734-955-5015
WX AWOS-3 at TTF (14 nm SW): 119.075 (734-384-0259)
WX ASOS at YIP (16 nm NW): PHONE 734-961-6843
WX ASOS at DET (20 nm NE): PHONE 313-371-9696

Nearby radio navigation aids

VOR radial/distance  VOR name  Freq  Var
DXOr137/8.9DETROIT VOR/DME113.4006W
CRLr072/11.6CARLETON VOR/DME115.7003W
SVMr139/24.3SALEM VORTAC114.3003W

 
NDB name  Hdg/Dist  Freq  Var  ID
GROSSE ILE295/2.941907WRYS .-. -.-- ...
TECUMSEH087/30.323906WTCU - -.-. ..-
PORT CLINTON344/39.042307WPCW .--. -.-. .--

Heliport Services

Runway Information

Helipad H1

Dimensions: 48 x 48 ft. / 15 x 15 m
Surface: concrete
Traffic pattern: leftleft

Heliport Ownership and Management from official FAA records

Ownership: Privately-owned
Owner: OAKWOOD SOUTHSHORE MEDICAL CENTER
5450 FORT ST.
TRENTON, MI 48183
Phone 784-671-3817
Manager: MATT GEORGE
5450 FORT ST.
TRENTON, MI 48183
Phone 734-6713817

Additional Remarks

FOR CD CTC CLEVELAND ARTCC AT 440-774-0490.

Instrument Procedures

There are no published instrument procedures at 0MI8.

Some nearby airports with instrument procedures:

KONZ - Grosse Ile Municipal Airport (3 nm SE)
KDTW - Detroit Metro Wayne County Airport (8 nm NW)
KTTF - Custer Airport (14 nm SW)
KYIP - Willow Run Airport (16 nm NW)
1D2 - Canton-Plymouth-Mettetal Airport (18 nm NW)
KDET - Coleman A Young Municipal Airport (20 nm NE)
 
Loc | Ops | Rwys | IFR | FBO | Links
Com | Nav | Svcs | Stats | Notes
Aerial photo
No photo
 
Airport distance calculator
Flying to Oakwood Southshore Medical Center Heliport? Find the distance to fly.

From to 0MI8

Sunrise and sunset
Times for 26-May-2022
 Local
(UTC-4)
 Zulu
(UTC)
Morning civil twilight05:3109:31
Sunrise06:0410:04
Sunset20:5600:56
Evening civil twilight21:2901:29

Current date and time
Zulu (UTC)  26-May-2022 20:29:51
Local (UTC-4)  26-May-2022 16:29:51
 
METAR
KONZ 
3nm E 
262015Z AUTO 22004KT 10SM OVC023 20/20 A2984 RMK AO2 T01980198 P0014
KDTW 
9nm NW 
261953Z 21011KT 3SM R03R/4500VP6000FT -RA BR SCT012 BKN025 OVC060 21/19 A2985 RMK AO2 SLP105 P0006 T02060194
KTTF 
14nm SW 
262015Z AUTO 19011KT 10SM BKN012 OVC019 22/20 A2983 RMK AO2 T02150204 P0001
CXHA 
15nm E 
261900Z AUTO 18014G19KT 22/18 RMK AO1 PK WND 21020/1804 SLP106 T02170182 58015
CYQG 
15nm NE 
262014Z AUTO 23009G18KT 9SM FEW007 SCT030 BKN042 OVC055 20/19 A2985 RMK SLP109 DENSITY ALT 1400FT
KYIP 
16nm NW 
262009Z 20010KT 10SM BKN021 OVC037 23/18 A2984 RMK AO2 RAE1958 P0000 T02330183 $
KDET 
19nm NE 
262023Z 20009KT 3SM -RA BR FEW010 BKN060 OVC075 21/19 A2984 RMK AO2 P0006 T02110189
TAF
KDTW 
9nm NW 
261731Z 2618/2724 19012G20KT 6SM -SHRA BKN025 OVC050 TEMPO 2621/2624 3SM TSRA BR OVC030CB FM270100 18006KT P6SM OVC025 FM270800 20004KT 5SM BR SCT015 BKN025 FM271400 20006KT 6SM BR OVC020
CYQG 
15nm NE 
261740Z 2618/2718 20020G30KT P6SM SCT020 BKN130 TEMPO 2618/2620 BKN020 FM262000 18015G25KT P6SM BKN025 TEMPO 2620/2704 5SM -SHRA BR OVC015 PROB30 2622/2704 VRB20G30KT 2SM TSRA BR OVC015CB FM270400 17010KT P6SM -SHRA OVC015 PROB30 2704/2709 VRB15G25KT 2SM TSRA BR BKN008 OVC015CB FM271500 22012G22KT P6SM BKN020 FM271700 22012G22KT P6SM BKN025 RMK FCST BASED ON AUTO OBS. NXT FCST BY 270000Z
KYIP 
16nm NW 
261728Z 2618/2718 19012G20KT 6SM -SHRA SCT025 BKN035 TEMPO 2621/2624 3SM TSRA BR OVC030CB FM270100 18006KT P6SM OVC025 FM270800 20004KT 5SM BR SCT015 BKN025 FM271400 22006KT 6SM BR OVC020
KDET 
19nm NE 
261732Z 2618/2718 19012G20KT 6SM -SHRA BKN025 OVC050 TEMPO 2621/2624 3SM TSRA BR OVC030CB FM270100 18006KT P6SM OVC025 FM270800 20004KT 5SM BR SCT015 BKN025 FM271400 22006KT 6SM BR OVC020
NOTAMs
Click for the latest NOTAMs
NOTAMs are issued by the DoD/FAA and will open in a separate window not controlled by AirNav.

 

 
 

Would you like to see your business listed on this page?

 If your business provides an interesting product or service to pilots, flight crews, aircraft, or users of the Oakwood Southshore Medical Center Heliport, you should consider listing it here.  To start the listing process, click on the button below
 
Add a business
 

Other Pages about Oakwood Southshore Medical Center Heliport

Update a link
 
Copyright © AirNav, LLC. All rights reserved. Privacy Policy  Contact